Ocee, Texas
Current Conditions -  °F | °C
As of 12:55 PM on Thursday 30 Oct 2014 (Local Time) from KPWG Reporting Station
Broken Clouds Broken Clouds  
Wind Chill: 72°   Ceiling: 6000
Heat Index: 72°   Visibility: 10mi
Dew Point: 46°   Wind: 8mph
Humidity: 41%   Direction: 190°S
Pressure: 30.16"   Gusts: NA
Location:  31.5634°N, 97.4392°W
Report Text: KPWG 301755Z AUTO 19007KT 10SM FEW046 BKN060 BKN065 22/08 A3016 RMK AO1 10220 20110 57010
Loading
Personal Weather Stations






























Interactive Weather Map
Tropical Storm Tracking
New forecast layout! Learn more

10-Day Weather Forecast

Advertisements
Track Severe Weather on mobile